Tontogany, Ohio
Current Conditions -  °F | °C
As of 11:52 AM on Wednesday 22 Oct 2014 (Local Time) from KTOL Reporting Station
Overcast Overcast  
Wind Chill: 41°   Ceiling: 1700
Heat Index: 46°   Visibility: 10mi
Dew Point: 39°   Wind: 9mph
Humidity: 76%   Direction: 360°N
Pressure: 30.34"   Gusts: NA
Location:  41.42°N, 83.74°W
Report Text: KTOL 221552Z 36008KT 10SM OVC017 08/04 A3034 RMK AO2 SLP277 T00780039
Loading
Personal Weather Stations






























Interactive Weather Map
Tropical Storm Tracking
New forecast layout! Learn more

10-Day Weather Forecast

Advertisements
Track Severe Weather on mobile